createdAt,value
2023-01-15T07:20:01.923Z,0.4
2023-01-15T07:30:01.433Z,0.6
2023-01-15T07:40:01.650Z,0.8
2023-01-15T07:45:01.342Z,0.6
2023-01-15T07:50:00.945Z,0.8
2023-01-15T08:00:02.039Z,3.1
2023-01-15T08:05:00.932Z,3.2
2023-01-15T08:10:01.086Z,4.2
2023-01-15T08:15:01.470Z,4.4
2023-01-15T08:20:00.930Z,16.8
2023-01-15T08:25:00.935Z,26.0
2023-01-15T08:30:02.049Z,27.2
2023-01-15T08:35:01.007Z,28.5
2023-01-15T08:40:00.934Z,30.2
2023-01-15T08:45:01.422Z,27.7
2023-01-15T08:50:00.962Z,17.7
2023-01-15T08:55:00.931Z,17.3
2023-01-15T09:00:01.396Z,15.1
2023-01-15T09:05:01.125Z,13.3
2023-01-15T15:20:00.972Z,4.8
2023-01-15T15:25:01.020Z,5.8
2023-01-15T15:30:02.822Z,6.2
2023-01-15T15:35:00.971Z,5.0
2023-01-15T15:40:01.036Z,4.3
2023-01-15T15:45:01.553Z,3.3
2023-01-15T15:50:01.626Z,2.5
2023-01-15T15:55:00.957Z,4.1
2023-01-15T16:00:01.666Z,4.7
2023-01-15T16:05:00.981Z,5.0
2023-01-15T16:10:00.968Z,6.9
2023-01-15T16:15:03.219Z,7.1
2023-01-15T16:20:00.958Z,5.4
2023-01-15T16:25:00.958Z,4.9
2023-01-15T16:30:01.620Z,4.4
2023-01-15T16:35:00.980Z,2.8
2023-01-15T16:40:00.971Z,3.2
2023-01-15T16:45:05.282Z,3.0
2023-01-15T16:50:00.962Z,2.1
2023-01-15T16:55:00.962Z,1.8
2023-01-15T17:00:03.937Z,1.2
2023-01-15T17:05:01.056Z,0.8
2023-01-15T17:10:00.964Z,0.9
2023-01-15T17:15:16.309Z,1.2
2023-01-15T17:20:00.953Z,1.5
2023-01-15T17:25:02.036Z,1.8
2023-01-15T17:30:01.620Z,1.8
2023-01-15T17:35:01.552Z,1.6
2023-01-15T17:40:00.974Z,1.8
2023-01-15T17:45:01.440Z,1.8
2023-01-15T17:50:00.962Z,1.9
2023-01-15T17:55:01.681Z,2.1
2023-01-15T18:00:01.493Z,2.1
2023-01-15T18:05:00.963Z,1.8
2023-01-15T18:10:01.010Z,2.3
2023-01-15T18:15:01.458Z,2.2
2023-01-15T18:20:00.962Z,1.8
2023-01-15T18:30:01.572Z,1.8
2023-01-15T18:35:00.962Z,1.4
2023-01-15T18:40:00.971Z,2.0
2023-01-15T18:45:01.365Z,2.4
2023-01-15T18:50:01.076Z,3.2
2023-01-15T18:55:00.961Z,3.3
2023-01-15T19:00:01.364Z,3.1
2023-01-15T19:05:01.724Z,2.3
2023-01-15T19:10:01.344Z,2.2
2023-01-15T19:15:03.000Z,1.6
2023-01-15T19:20:01.032Z,1.7
2023-01-15T19:25:01.066Z,1.5
2023-01-15T19:30:01.496Z,1.5
2023-01-15T19:35:00.994Z,1.4
2023-01-15T19:40:00.977Z,1.6
2023-01-15T19:45:01.442Z,1.6
2023-01-15T19:50:00.971Z,1.8
2023-01-15T19:55:00.974Z,1.9
2023-01-15T20:00:03.685Z,1.7
2023-01-15T20:05:01.016Z,1.5
2023-01-15T20:10:01.059Z,1.4
2023-01-15T20:15:01.596Z,1.4
2023-01-15T20:30:03.938Z,1.2
2023-01-15T20:35:01.023Z,1.0
2023-01-15T20:40:00.977Z,1.4
2023-01-15T20:45:01.777Z,1.6
2023-01-15T20:55:01.002Z,1.4
2023-01-15T21:00:03.935Z,1.6
2023-01-15T21:05:01.066Z,1.5
2023-01-15T21:15:01.560Z,1.7
2023-01-15T21:20:01.091Z,1.9
2023-01-15T21:25:01.029Z,1.8
2023-01-15T21:30:01.847Z,1.6
2023-01-15T21:35:00.982Z,1.4
2023-01-15T21:40:01.065Z,1.5
2023-01-15T21:45:01.543Z,1.7
2023-01-15T21:50:00.983Z,1.9
2023-01-15T21:55:00.992Z,1.8
2023-01-15T22:00:01.608Z,1.8
2023-01-15T22:05:00.993Z,1.5
2023-01-15T22:10:01.000Z,1.1
2023-01-15T22:15:01.486Z,0.8
2023-01-15T22:25:01.119Z,0.7
2023-01-15T22:30:01.794Z,0.9
2023-01-15T22:40:01.044Z,0.7
2023-01-15T22:45:01.649Z,0.7
2023-01-15T22:50:01.051Z,0.8
2023-01-15T22:55:01.064Z,0.4
2023-01-15T23:00:02.046Z,0.6
2023-01-15T23:10:01.014Z,0.5
2023-01-15T23:15:01.387Z,0.3
2023-01-15T23:20:01.029Z,0.5
2023-01-15T23:25:01.611Z,0.4
2023-01-15T23:30:01.727Z,0.8
2023-01-15T23:35:01.721Z,0.9
2023-01-15T23:45:02.953Z,0.9
2023-01-15T23:50:01.007Z,0.8
2023-01-15T23:55:01.004Z,0.4
